Tropical Cyclones
[Index]
Main Index Home Page Stock Weather Photos Extreme Storms Discussion Storm News and Storm Chasing Reports Tropical Cyclones / Hurricanes / Typhoons Weather Data and Links Wild Fires / Bushfires Weather Observation Techniques Weather Picture Catalogue Tornado Pictures and Reports Stock Video Footage and DVDs for sale
Season 2000-2001 Tropical Cyclone ALISTAIR Track Map
Season 2000-2001 Summaries (Operational Data): [AU] [SIO] [SPAC] [SH]
<<- Previous TC | 2000-2001 Season | Next TC ->>

click for intensity scale information  Lat/long Grid: Show Hide

 Date Labels: Show Hide

Operational Tropical Cyclone Data : JTWC Advisories

Name: ALISTAIR
Number: 0120

16 Apr 2001 00:00 UTC to 22 Apr 2001 18:00 UTC

    date/time    lat    long     hPa   cat  kts
2001-04-16 00    8.3   135.7    1004                     
2001-04-16 06    8.0   134.5    1002         30          
2001-04-16 12   10.0   134.0    1000         30          
2001-04-16 18   10.2   132.8     990    1    40          
2001-04-17 00   10.4   131.4     990    1    40          
2001-04-17 06   10.8   130.5     990    1    40          
2001-04-17 12   11.6   129.5     990    1    40          
2001-04-17 18   11.8   128.6     990    1    40          
2001-04-18 00   12.7   127.0     985    2    50          
2001-04-18 06   13.8   125.3     985    2    50          
2001-04-18 10   14.3   124.5     980    2    55          
2001-04-18 16   14.9   123.3     975    2    60          
2001-04-18 22   15.5   122.4     975    2    60          
2001-04-19 04   16.4   121.1     975    2    60          
2001-04-19 10   17.2   120.0     975    2    60          
2001-04-19 16   17.8   118.9     980    2    55          
2001-04-19 22   17.8   116.5     985    2    50          
2001-04-20 04   18.1   115.3     990    2    50          
2001-04-20 10   18.6   113.9     990    2    50          
2001-04-20 16   19.0   112.7     990    2    50          
2001-04-20 22   19.9   112.0     990    2    50          
2001-04-21 04   20.4   111.1     990    1    45          
2001-04-21 10   20.9   111.4     990    1    45          
2001-04-21 16   21.1   109.8     995    1    40          
2001-04-21 22   21.6   109.3    1000    1    35          
2001-04-22 18   23.5   109.5    1005                     
Winds are 10-min average.

Tropical cyclone tracks developed by Michael Bath using operational warnings and advisories and Google Maps.


[Australian Severe Weather index] [Copyright Notice] [Email Contacts] [Search This Site] [Privacy Policy]
Document: tropical_cyclone_alistair.htm Updated: 28 May 2013